createdAt,value
2018-09-23T00:00:59.924Z,15.63
2018-09-23T00:03:28.280Z,15.67
2018-09-23T00:05:56.529Z,13.87
2018-09-23T00:08:24.774Z,16.57
2018-09-23T00:10:53.041Z,14.67
2018-09-23T00:13:21.365Z,15.13
2018-09-23T00:15:49.699Z,12.47
2018-09-23T00:18:18.007Z,15.53
2018-09-23T00:20:46.242Z,16.23
2018-09-23T00:23:14.505Z,16.37
2018-09-23T00:25:42.762Z,18.27
2018-09-23T00:28:11.013Z,14.43
2018-09-23T00:30:39.314Z,20.07
2018-09-23T00:33:07.741Z,15.43
2018-09-23T00:35:35.957Z,14.23
2018-09-23T00:38:04.365Z,17.20
2018-09-23T00:40:32.679Z,14.53
2018-09-23T00:43:00.936Z,17.97
2018-09-23T00:45:29.205Z,18.60
2018-09-23T00:47:57.568Z,23.00
2018-09-23T00:50:25.900Z,15.57
2018-09-23T00:52:54.149Z,15.83
2018-09-23T00:55:22.492Z,23.87
2018-09-23T00:57:50.757Z,18.43
2018-09-23T01:00:18.985Z,19.93
2018-09-23T01:02:47.249Z,20.07
2018-09-23T01:05:15.530Z,15.97
2018-09-23T01:07:43.759Z,21.43
2018-09-23T01:10:12.065Z,22.80
2018-09-23T01:12:40.425Z,19.77
2018-09-23T01:15:08.658Z,19.07
2018-09-23T01:17:36.932Z,21.17
2018-09-23T01:20:05.391Z,19.67
2018-09-23T01:22:33.750Z,19.07
2018-09-23T01:25:02.262Z,20.30
2018-09-23T01:27:30.565Z,17.80
2018-09-23T01:29:59.891Z,22.97
2018-09-23T01:32:28.145Z,21.37
2018-09-23T01:34:56.414Z,18.53
2018-09-23T01:37:24.721Z,22.70
2018-09-23T01:39:52.982Z,21.63
2018-09-23T01:42:21.245Z,23.37
2018-09-23T01:44:49.532Z,17.50
2018-09-23T01:47:17.806Z,22.37
2018-09-23T01:49:46.073Z,18.00
2018-09-23T01:52:14.346Z,20.47
2018-09-23T01:54:42.621Z,22.30
2018-09-23T01:57:10.901Z,22.70
2018-09-23T01:59:39.125Z,18.47
2018-09-23T02:02:07.385Z,22.43
2018-09-23T02:04:35.658Z,19.83
2018-09-23T02:07:03.966Z,24.43
2018-09-23T02:09:32.210Z,25.90
2018-09-23T02:12:00.485Z,17.73
2018-09-23T02:14:28.749Z,21.53
2018-09-23T02:16:56.993Z,24.93
2018-09-23T02:19:25.307Z,21.67
2018-09-23T02:21:53.549Z,24.93
2018-09-23T02:24:21.999Z,23.40
2018-09-23T02:26:50.235Z,22.90
2018-09-23T02:29:18.468Z,20.60
2018-09-23T02:31:46.842Z,23.50
2018-09-23T02:34:15.101Z,22.20
2018-09-23T02:36:43.858Z,22.37
2018-09-23T02:39:12.603Z,22.80
2018-09-23T02:41:41.025Z,22.27
2018-09-23T02:44:09.254Z,19.80
2018-09-23T02:46:37.510Z,26.53
2018-09-23T02:49:05.912Z,24.63
2018-09-23T02:51:34.153Z,28.43
2018-09-23T02:54:02.411Z,23.70
2018-09-23T02:56:30.981Z,25.70
2018-09-23T02:58:59.237Z,34.60
2018-09-23T03:01:28.450Z,26.80
2018-09-23T03:03:56.778Z,25.27
2018-09-23T03:06:25.261Z,27.63
2018-09-23T03:08:53.797Z,27.30
2018-09-23T03:11:23.109Z,23.40
2018-09-23T03:13:51.394Z,23.90
2018-09-23T03:16:20.397Z,22.77
2018-09-23T03:18:48.811Z,25.67
2018-09-23T03:21:17.095Z,21.57
2018-09-23T03:23:45.430Z,22.37
2018-09-23T03:26:13.838Z,25.03
2018-09-23T03:28:42.110Z,25.03
2018-09-23T03:34:03.693Z,26.47
2018-09-23T03:36:31.957Z,24.67
2018-09-23T03:39:00.311Z,23.80
2018-09-23T03:41:28.627Z,25.40
2018-09-23T03:43:57.024Z,27.30
2018-09-23T03:46:25.310Z,28.77
2018-09-23T03:48:53.582Z,29.77
2018-09-23T03:51:21.862Z,26.77
2018-09-23T03:53:50.328Z,29.50
2018-09-23T03:56:18.606Z,27.67
2018-09-23T03:58:46.885Z,30.93
2018-09-23T04:01:15.151Z,33.03
2018-09-23T04:03:43.470Z,29.03
2018-09-23T04:06:11.778Z,26.13
2018-09-23T04:08:40.058Z,28.67
2018-09-23T04:11:10.363Z,32.90
2018-09-23T04:13:38.674Z,38.25
2018-09-23T04:16:07.032Z,31.43
2018-09-23T04:18:36.406Z,33.80
2018-09-23T04:21:04.674Z,33.50
2018-09-23T04:23:33.037Z,34.67
2018-09-23T04:26:01.324Z,38.17
2018-09-23T04:28:29.692Z,34.67
2018-09-23T04:30:57.982Z,41.20
2018-09-23T04:33:27.349Z,33.03
2018-09-23T04:35:55.651Z,35.73
2018-09-23T04:38:24.011Z,38.60
2018-09-23T04:40:52.315Z,44.80
2018-09-23T04:43:20.695Z,37.00
2018-09-23T04:45:49.010Z,34.23
2018-09-23T04:48:17.290Z,40.47
2018-09-23T04:50:45.621Z,40.80
2018-09-23T04:53:13.899Z,37.60
2018-09-23T04:55:43.303Z,39.27
2018-09-23T04:58:11.667Z,42.73
2018-09-23T05:00:40.036Z,40.67
2018-09-23T05:03:08.934Z,43.07
2018-09-23T05:05:37.244Z,43.80
2018-09-23T05:08:05.675Z,42.00
2018-09-23T05:10:33.979Z,41.77
2018-09-23T05:13:02.309Z,46.93
2018-09-23T05:15:30.617Z,48.07
2018-09-23T05:17:58.934Z,44.57
2018-09-23T05:20:27.337Z,46.03
2018-09-23T05:22:55.648Z,44.40
2018-09-23T05:25:23.935Z,38.33
2018-09-23T05:27:52.244Z,43.17
2018-09-23T05:30:20.537Z,43.23
2018-09-23T05:32:48.870Z,40.63
2018-09-23T05:35:17.180Z,50.37
2018-09-23T05:37:45.746Z,52.23
2018-09-23T05:40:14.062Z,45.00
2018-09-23T05:42:42.373Z,36.87
2018-09-23T05:45:10.937Z,41.00
2018-09-23T05:47:39.167Z,43.97
2018-09-23T05:50:07.702Z,49.17
2018-09-23T05:52:35.954Z,37.23
2018-09-23T05:55:04.242Z,40.00
2018-09-23T05:57:32.548Z,49.53
2018-09-23T06:00:00.903Z,41.27
2018-09-23T06:02:29.465Z,40.53
2018-09-23T06:04:57.891Z,38.03
2018-09-23T06:07:26.152Z,41.87
2018-09-23T06:09:54.478Z,41.27
2018-09-23T06:12:22.770Z,42.20
2018-09-23T06:14:51.078Z,43.33
2018-09-23T06:17:19.354Z,42.73
2018-09-23T06:19:47.709Z,41.80
2018-09-23T06:22:16.090Z,43.80
2018-09-23T06:24:44.360Z,44.47
2018-09-23T06:27:12.744Z,39.97
2018-09-23T06:29:41.191Z,38.33
2018-09-23T06:32:10.534Z,40.73
2018-09-23T06:34:40.110Z,38.97
2018-09-23T06:37:09.572Z,41.50
2018-09-23T06:39:37.906Z,39.97
2018-09-23T06:42:06.226Z,41.70
2018-09-23T06:44:34.530Z,36.43
2018-09-23T06:47:02.791Z,38.17
2018-09-23T06:49:31.292Z,36.57
2018-09-23T06:51:59.577Z,41.50
2018-09-23T06:54:27.938Z,43.20
2018-09-23T06:56:56.225Z,38.70
2018-09-23T06:59:24.402Z,48.07
2018-09-23T07:01:52.702Z,47.60
2018-09-23T07:04:21.652Z,40.80
2018-09-23T07:06:49.875Z,36.70
2018-09-23T07:09:18.172Z,30.13
2018-09-23T07:11:46.461Z,34.17
2018-09-23T07:14:14.711Z,33.23
2018-09-23T07:16:43.005Z,32.67
2018-09-23T07:19:11.307Z,37.73
2018-09-23T07:21:39.818Z,39.57
2018-09-23T07:24:08.272Z,38.13
2018-09-23T07:26:36.525Z,35.00
2018-09-23T07:29:04.788Z,36.17
2018-09-23T07:31:33.110Z,40.07
2018-09-23T07:34:01.401Z,32.53
2018-09-23T07:36:29.654Z,37.20
2018-09-23T07:38:57.960Z,38.07
2018-09-23T07:41:26.226Z,37.73
2018-09-23T07:43:54.539Z,32.80
2018-09-23T07:46:22.875Z,32.17
2018-09-23T07:48:51.188Z,32.90
2018-09-23T07:51:19.570Z,29.33
2018-09-23T07:53:47.825Z,25.80
2018-09-23T07:56:16.134Z,31.23
2018-09-23T07:58:44.450Z,31.70
2018-09-23T08:01:12.764Z,30.87
2018-09-23T08:03:41.158Z,32.37
2018-09-23T08:06:09.697Z,28.90
2018-09-23T08:08:38.241Z,31.60
2018-09-23T08:11:06.867Z,30.23
2018-09-23T08:13:35.261Z,27.43
2018-09-23T08:16:03.762Z,28.93
2018-09-23T08:18:32.045Z,25.30
2018-09-23T08:21:00.422Z,28.90
2018-09-23T08:23:28.690Z,31.03
2018-09-23T08:25:57.287Z,24.57
2018-09-23T08:28:25.721Z,23.07
2018-09-23T08:30:54.031Z,22.77
2018-09-23T08:33:22.286Z,19.20
2018-09-23T08:35:50.648Z,20.50
2018-09-23T08:38:19.091Z,20.17
2018-09-23T08:40:47.347Z,20.10
2018-09-23T08:43:15.657Z,17.67
2018-09-23T08:45:44.061Z,18.60
2018-09-23T08:48:12.363Z,22.63
2018-09-23T08:50:40.741Z,20.47
2018-09-23T08:53:09.117Z,18.77
2018-09-23T08:55:37.541Z,17.23
2018-09-23T08:58:06.047Z,17.60
2018-09-23T09:00:34.314Z,18.77
2018-09-23T09:03:04.823Z,21.93
2018-09-23T09:05:34.412Z,24.03
2018-09-23T09:08:02.735Z,19.33
2018-09-23T09:10:31.009Z,20.27
2018-09-23T09:12:59.286Z,21.07
2018-09-23T09:15:27.806Z,20.93
2018-09-23T09:17:56.213Z,17.03
2018-09-23T09:20:24.483Z,16.60
2018-09-23T09:22:52.718Z,19.30
2018-09-23T09:25:21.065Z,19.97
2018-09-23T09:27:49.331Z,15.40
2018-09-23T09:30:17.729Z,19.93
2018-09-23T09:32:46.977Z,24.03
2018-09-23T09:35:15.426Z,18.70
2018-09-23T09:37:43.665Z,20.47
2018-09-23T09:40:11.905Z,19.43
2018-09-23T09:42:40.246Z,21.80
2018-09-23T09:45:08.637Z,21.57
2018-09-23T09:47:37.004Z,25.53
2018-09-23T09:50:05.371Z,20.93
2018-09-23T09:52:33.650Z,19.50
2018-09-23T09:55:02.058Z,19.67
2018-09-23T09:57:30.358Z,18.90
2018-09-23T09:59:58.700Z,18.53
2018-09-23T10:02:27.016Z,19.77
2018-09-23T10:04:55.362Z,18.20
2018-09-23T10:07:23.640Z,17.73
2018-09-23T10:09:51.942Z,16.17
2018-09-23T10:12:20.222Z,18.10
2018-09-23T10:14:48.513Z,16.47
2018-09-23T10:17:17.117Z,12.93
2018-09-23T10:19:45.433Z,14.97
2018-09-23T10:22:13.746Z,16.77
2018-09-23T10:24:42.046Z,14.53
2018-09-23T10:27:10.483Z,17.67
2018-09-23T10:29:38.823Z,17.17
2018-09-23T10:32:07.317Z,14.53
2018-09-23T10:34:35.651Z,11.60
2018-09-23T10:37:07.122Z,12.57
2018-09-23T10:39:35.392Z,18.13
2018-09-23T10:42:03.715Z,13.83
2018-09-23T10:44:32.037Z,13.93
2018-09-23T10:47:00.399Z,16.13
2018-09-23T10:49:28.708Z,17.30
2018-09-23T10:51:56.982Z,22.17
2018-09-23T10:54:25.362Z,25.90
2018-09-23T10:56:53.679Z,23.93
2018-09-23T10:59:22.073Z,31.20
2018-09-23T11:01:50.354Z,27.37
2018-09-23T11:04:18.794Z,29.70
2018-09-23T11:06:46.986Z,23.87
2018-09-23T11:09:15.588Z,27.73
2018-09-23T11:11:43.890Z,27.80
2018-09-23T11:14:12.288Z,20.67
2018-09-23T11:16:40.629Z,30.30
2018-09-23T11:19:08.931Z,23.07
2018-09-23T11:21:37.433Z,25.43
2018-09-23T11:24:06.018Z,22.07
2018-09-23T11:26:34.850Z,30.03
2018-09-23T11:29:03.121Z,24.97
2018-09-23T11:31:31.586Z,25.37
2018-09-23T11:33:59.861Z,37.93
2018-09-23T11:36:28.226Z,29.23
2018-09-23T11:38:56.679Z,36.33
2018-09-23T11:41:24.960Z,26.90
2018-09-23T11:43:53.225Z,25.37
2018-09-23T11:46:21.530Z,18.07
2018-09-23T11:48:49.805Z,24.93
2018-09-23T11:51:18.038Z,24.87
2018-09-23T11:53:46.293Z,17.47
2018-09-23T11:56:14.666Z,15.90
2018-09-23T11:58:42.948Z,13.80
2018-09-23T12:01:11.318Z,14.23
2018-09-23T12:03:39.614Z,17.00
2018-09-23T12:06:07.886Z,15.37
2018-09-23T12:08:36.169Z,16.63
2018-09-23T12:11:04.860Z,20.47
2018-09-23T12:13:33.152Z,24.27
2018-09-23T12:16:01.414Z,21.53
2018-09-23T12:18:29.744Z,21.23
2018-09-23T12:20:57.950Z,23.93
2018-09-23T12:23:26.284Z,27.23
2018-09-23T12:25:54.581Z,24.37
2018-09-23T12:28:22.944Z,23.10
2018-09-23T12:31:13.272Z,32.37
2018-09-23T12:33:41.610Z,22.10
2018-09-23T12:36:09.994Z,25.87
2018-09-23T12:38:38.391Z,25.33
2018-09-23T12:41:06.914Z,18.97
2018-09-23T12:43:36.505Z,19.97
2018-09-23T12:46:05.615Z,19.50
2018-09-23T12:48:33.923Z,18.23
2018-09-23T12:51:02.310Z,21.87
2018-09-23T12:53:30.569Z,19.67
2018-09-23T12:55:58.822Z,17.47
2018-09-23T12:58:27.253Z,17.70
2018-09-23T13:00:55.593Z,23.43
2018-09-23T13:03:23.935Z,21.10
2018-09-23T13:05:52.214Z,20.87
2018-09-23T13:08:20.646Z,26.97
2018-09-23T13:10:49.002Z,24.20
2018-09-23T13:13:17.386Z,28.93
2018-09-23T13:15:45.682Z,27.30
2018-09-23T13:18:14.022Z,29.07
2018-09-23T13:20:42.361Z,28.77
2018-09-23T13:23:10.638Z,30.17
2018-09-23T13:25:38.999Z,31.97
2018-09-23T13:28:07.267Z,25.77
2018-09-23T13:30:35.682Z,24.83
2018-09-23T13:33:03.966Z,26.67
2018-09-23T13:35:32.237Z,24.40
2018-09-23T13:38:00.566Z,27.23
2018-09-23T13:40:28.833Z,33.60
2018-09-23T13:42:57.112Z,32.10
2018-09-23T13:45:25.540Z,35.40
2018-09-23T13:47:53.995Z,31.27
2018-09-23T13:50:22.299Z,27.23
2018-09-23T13:52:50.619Z,29.07
2018-09-23T13:55:18.947Z,23.43
2018-09-23T13:57:47.238Z,26.30
2018-09-23T14:00:15.700Z,24.83
2018-09-23T14:02:44.055Z,24.50
2018-09-23T14:05:12.413Z,22.10
2018-09-23T14:07:41.098Z,35.13
2018-09-23T14:10:09.440Z,30.53
2018-09-23T14:12:38.869Z,38.37
2018-09-23T14:15:07.454Z,38.77
2018-09-23T14:17:36.972Z,30.40
2018-09-23T14:20:05.330Z,27.33
2018-09-23T14:22:33.800Z,26.83
2018-09-23T14:25:03.462Z,32.97
2018-09-23T14:27:31.794Z,29.97
2018-09-23T14:30:00.575Z,42.20
2018-09-23T14:32:29.083Z,34.70
2018-09-23T14:34:57.484Z,34.00
2018-09-23T14:37:26.115Z,33.00
2018-09-23T14:39:55.059Z,40.70
2018-09-23T14:42:23.959Z,57.50
2018-09-23T14:44:53.451Z,49.43
2018-09-23T14:47:22.093Z,45.27
2018-09-23T14:49:50.477Z,29.80
2018-09-23T14:52:19.109Z,30.10
2018-09-23T14:54:47.694Z,32.30
2018-09-23T14:57:15.975Z,30.83
2018-09-23T14:59:44.239Z,26.07
2018-09-23T15:02:13.345Z,34.57
2018-09-23T15:04:41.701Z,21.60
2018-09-23T15:07:10.107Z,21.97
2018-09-23T15:09:38.568Z,18.17
2018-09-23T15:12:07.029Z,18.90
2018-09-23T15:14:35.830Z,16.37
2018-09-23T15:17:04.653Z,20.87
2018-09-23T15:19:33.133Z,17.43
2018-09-23T15:22:01.965Z,14.53
2018-09-23T15:24:30.278Z,16.70
2018-09-23T15:26:58.653Z,23.03
2018-09-23T15:29:27.153Z,20.10
2018-09-23T15:31:55.638Z,15.77
2018-09-23T15:34:24.003Z,18.33
2018-09-23T15:36:52.315Z,16.27
2018-09-23T15:39:21.331Z,20.33
2018-09-23T15:41:51.026Z,22.40
2018-09-23T15:44:19.409Z,21.33
2018-09-23T15:46:48.045Z,24.23
2018-09-23T15:49:16.477Z,23.53
2018-09-23T15:51:44.858Z,17.40
2018-09-23T15:54:15.226Z,18.70
2018-09-23T15:56:43.711Z,13.53
2018-09-23T15:59:13.059Z,16.60
2018-09-23T16:01:41.402Z,16.37
2018-09-23T16:04:11.014Z,12.30
2018-09-23T16:06:40.175Z,13.70
2018-09-23T16:09:09.308Z,11.90
2018-09-23T16:11:38.330Z,9.17
2018-09-23T16:14:06.630Z,9.10
2018-09-23T16:16:34.974Z,11.37
2018-09-23T16:19:03.365Z,7.13
2018-09-23T16:21:31.701Z,9.30
2018-09-23T16:24:00.052Z,8.47
2018-09-23T16:26:28.711Z,8.70
2018-09-23T16:29:01.086Z,8.53
2018-09-23T16:31:29.454Z,9.87
2018-09-23T16:33:58.169Z,9.90
2018-09-23T16:36:27.171Z,7.27
2018-09-23T16:38:55.651Z,7.60
2018-09-23T16:41:24.061Z,10.20
2018-09-23T16:43:52.368Z,10.37
2018-09-23T16:46:20.944Z,7.87
2018-09-23T16:48:49.398Z,7.93
2018-09-23T16:51:18.053Z,9.43
2018-09-23T16:53:47.732Z,11.27
2018-09-23T16:56:16.806Z,8.70
2018-09-23T16:58:45.248Z,10.43
2018-09-23T17:01:13.587Z,10.40
2018-09-23T17:03:42.057Z,15.80
2018-09-23T17:06:10.498Z,16.33
2018-09-23T17:08:40.023Z,12.37
2018-09-23T17:11:08.301Z,11.87
2018-09-23T17:13:36.750Z,14.47
2018-09-23T17:16:05.141Z,13.43
2018-09-23T17:18:33.491Z,13.53
2018-09-23T17:21:01.872Z,15.27
2018-09-23T17:23:30.386Z,12.83
2018-09-23T17:25:58.724Z,15.97
2018-09-23T17:28:27.287Z,11.20
2018-09-23T17:30:55.878Z,16.50
2018-09-23T17:33:24.356Z,14.70
2018-09-23T17:35:52.608Z,16.57
2018-09-23T17:38:20.893Z,15.67
2018-09-23T17:40:49.243Z,13.30
2018-09-23T17:43:17.583Z,22.87
2018-09-23T17:45:45.847Z,15.20
2018-09-23T17:48:14.204Z,19.27
2018-09-23T17:50:42.502Z,20.33
2018-09-23T17:53:10.814Z,19.33
2018-09-23T17:55:39.456Z,18.13
2018-09-23T17:58:08.396Z,22.47
2018-09-23T18:00:36.159Z,21.07
2018-09-23T18:03:04.998Z,18.27
2018-09-23T18:05:33.350Z,19.97
2018-09-23T18:08:01.804Z,22.00
2018-09-23T18:10:30.242Z,24.57
2018-09-23T18:12:58.493Z,20.10
2018-09-23T18:15:26.868Z,19.37
2018-09-23T18:17:55.212Z,18.30
2018-09-23T18:20:23.613Z,24.57
2018-09-23T18:22:52.004Z,18.77
2018-09-23T18:25:20.299Z,20.60
2018-09-23T18:27:48.799Z,23.23
2018-09-23T18:30:17.171Z,18.53
2018-09-23T18:32:45.466Z,18.33
2018-09-23T18:35:13.825Z,13.17
2018-09-23T18:37:42.219Z,19.73
2018-09-23T18:40:10.502Z,13.73
2018-09-23T18:42:38.778Z,19.20
2018-09-23T18:45:07.113Z,15.53
2018-09-23T18:47:35.418Z,17.03
2018-09-23T18:50:03.951Z,14.20
2018-09-23T18:52:32.723Z,18.87
2018-09-23T18:55:06.427Z,17.50
2018-09-23T18:57:35.598Z,12.30
2018-09-23T19:00:04.082Z,7.97
2018-09-23T19:02:33.426Z,11.50
2018-09-23T19:05:01.785Z,13.17
2018-09-23T19:07:30.198Z,12.07
2018-09-23T19:09:58.682Z,15.70
2018-09-23T19:12:27.204Z,14.00
2018-09-23T19:14:55.853Z,12.93
2018-09-23T19:17:26.045Z,14.10
2018-09-23T19:20:00.949Z,16.13
2018-09-23T19:22:37.374Z,14.20
2018-09-23T19:25:06.767Z,11.77
2018-09-23T19:27:36.230Z,13.20
2018-09-23T19:30:05.739Z,11.50
2018-09-23T19:32:34.529Z,13.30
2018-09-23T19:35:03.113Z,12.40
2018-09-23T19:37:31.402Z,14.93
2018-09-23T19:39:59.682Z,13.03
2018-09-23T19:42:28.153Z,8.73
2018-09-23T19:44:56.594Z,11.03
2018-09-23T19:47:25.078Z,12.87
2018-09-23T19:49:53.516Z,17.47
2018-09-23T19:52:21.984Z,11.90
2018-09-23T19:54:50.504Z,11.57
2018-09-23T19:57:18.851Z,10.37
2018-09-23T19:59:47.339Z,10.50
2018-09-23T20:05:10.733Z,10.10
2018-09-23T20:07:42.702Z,13.30
2018-09-23T20:10:10.998Z,9.90
2018-09-23T20:12:39.417Z,11.27
2018-09-23T20:15:13.438Z,14.73
2018-09-23T20:17:41.797Z,12.27
2018-09-23T20:20:10.356Z,10.10
2018-09-23T20:22:39.831Z,12.03
2018-09-23T20:25:08.310Z,11.73
2018-09-23T20:27:36.750Z,11.90
2018-09-23T20:30:05.558Z,13.77
2018-09-23T20:35:26.926Z,11.17
2018-09-23T20:37:55.288Z,10.20
2018-09-23T20:40:23.630Z,9.63
2018-09-23T20:42:52.077Z,11.50
2018-09-23T20:45:20.469Z,8.97
2018-09-23T20:47:48.775Z,10.93
2018-09-23T20:50:17.392Z,11.80
2018-09-23T20:52:45.747Z,12.47
2018-09-23T20:55:13.995Z,9.43
2018-09-23T20:57:42.269Z,11.60
2018-09-23T21:00:10.541Z,10.50
2018-09-23T21:02:38.882Z,8.83
2018-09-23T21:05:07.491Z,9.33
2018-09-23T21:07:35.844Z,7.87
2018-09-23T21:10:04.313Z,11.10
2018-09-23T21:12:32.757Z,8.83
2018-09-23T21:15:01.325Z,8.23
2018-09-23T21:17:29.587Z,7.57
2018-09-23T21:19:57.857Z,7.20
2018-09-23T21:22:26.242Z,8.97
2018-09-23T21:24:54.665Z,10.10
2018-09-23T21:27:22.934Z,11.40
2018-09-23T21:29:51.287Z,9.97
2018-09-23T21:32:19.561Z,11.37
2018-09-23T21:34:47.830Z,10.60
2018-09-23T21:37:16.162Z,8.40
2018-09-23T21:39:44.429Z,7.67
2018-09-23T21:42:12.721Z,9.60
2018-09-23T21:44:41.063Z,11.97
2018-09-23T21:47:10.166Z,8.63
2018-09-23T21:49:38.414Z,9.87
2018-09-23T21:52:06.673Z,8.57
2018-09-23T21:54:34.931Z,10.67
2018-09-23T21:57:03.247Z,8.80
2018-09-23T21:59:31.527Z,9.53
2018-09-23T22:01:59.823Z,12.03
2018-09-23T22:04:28.146Z,12.53
2018-09-23T22:06:56.393Z,14.30
2018-09-23T22:09:24.664Z,10.87
2018-09-23T22:11:52.929Z,9.23
2018-09-23T22:14:21.210Z,8.57
2018-09-23T22:16:49.551Z,10.67
2018-09-23T22:19:17.803Z,8.60
2018-09-23T22:21:46.128Z,12.67
2018-09-23T22:24:14.335Z,11.83
2018-09-23T22:26:42.602Z,10.67
2018-09-23T22:29:11.002Z,11.87
2018-09-23T22:31:39.285Z,12.33
2018-09-23T22:34:07.550Z,9.80
2018-09-23T22:36:35.825Z,9.57
2018-09-23T22:39:05.340Z,10.73
2018-09-23T22:41:33.601Z,8.33
2018-09-23T22:44:01.871Z,7.93
2018-09-23T22:46:30.154Z,11.13
2018-09-23T22:48:58.574Z,7.83
2018-09-23T22:51:26.835Z,9.47
2018-09-23T22:53:55.190Z,14.43
2018-09-23T22:56:23.433Z,11.07
2018-09-23T22:58:51.904Z,7.67
2018-09-23T23:01:20.170Z,10.80
2018-09-23T23:03:48.478Z,14.13
2018-09-23T23:06:16.734Z,11.87
2018-09-23T23:08:45.001Z,10.93
2018-09-23T23:11:13.242Z,11.40
2018-09-23T23:13:41.513Z,10.93
2018-09-23T23:16:09.790Z,9.63
2018-09-23T23:18:38.109Z,12.93
2018-09-23T23:21:06.381Z,9.40
2018-09-23T23:23:34.638Z,14.83
2018-09-23T23:26:02.933Z,13.53
2018-09-23T23:28:31.185Z,12.10
2018-09-23T23:30:59.441Z,9.23
2018-09-23T23:33:27.853Z,10.07
2018-09-23T23:35:56.165Z,10.53
2018-09-23T23:38:24.486Z,10.03
2018-09-23T23:40:52.733Z,9.93
2018-09-23T23:43:20.988Z,12.73
2018-09-23T23:45:49.257Z,11.40
2018-09-23T23:48:17.547Z,9.97
2018-09-23T23:50:45.814Z,8.77
2018-09-23T23:53:14.081Z,11.67
2018-09-23T23:55:42.365Z,8.47
2018-09-23T23:58:10.644Z,11.40
